Time;durP1;ratioP1;P1;durP2;ratioP2;P2;SDS_P1;SDS_P2;PMS_P1;PMS_P2;Temp;Humidity;BMP_temperature;BMP_pressure;BME280_temperature;BME280_humidity;BME280_pressure;Samples;Min_cycle;Max_cycle;Signal;HPM_P1;HPM_P2
2021/03/26 00:01:17;;;;;;;11.40;7.33;;;;;;;9.15;75.28;99189.38;4853790;28;102495;-80
2021/03/26 00:03:47;;;;;;;13.40;8.27;;;;;;;9.04;75.58;99191.81;4862252;28;102684;-79
2021/03/26 00:06:18;;;;;;;10.23;7.57;;;;;;;9.06;75.19;99188.13;4871356;28;104236;-80
2021/03/26 00:08:46;;;;;;;10.03;8.30;;;;;;;8.92;77.10;99188.09;4839356;29;104123;-80
2021/03/26 00:11:14;;;;;;;10.47;7.87;;;;;;;9.05;75.84;99188.22;4868243;28;102497;-79
2021/03/26 00:13:42;;;;;;;8.70;6.80;;;;;;;9.16;75.48;99191.06;4870333;28;102613;-80
2021/03/26 00:16:10;;;;;;;6.97;6.23;;;;;;;9.24;75.04;99194.09;4870412;28;102861;-80
2021/03/26 00:18:38;;;;;;;11.33;6.07;;;;;;;9.31;74.75;99193.66;4860285;28;102779;-80
2021/03/26 00:21:06;;;;;;;11.80;7.87;;;;;;;9.25;76.29;99191.38;4870593;28;102538;-80
2021/03/26 00:23:33;;;;;;;9.67;8.23;;;;;;;9.14;75.94;99187.69;4853701;28;102752;-80
2021/03/26 00:26:00;;;;;;;13.37;9.10;;;;;;;9.03;76.61;99193.59;4869655;28;103817;-79
2021/03/26 00:28:28;;;;;;;12.37;8.83;;;;;;;8.77;78.38;99191.59;4871607;28;103951;-80
2021/03/26 00:30:56;;;;;;;7.30;6.50;;;;;;;8.92;77.67;99193.38;4870077;28;102538;-80
2021/03/26 00:33:23;;;;;;;9.37;7.40;;;;;;;8.91;77.12;99185.53;4858768;28;103654;-80
2021/03/26 00:35:50;;;;;;;9.97;8.20;;;;;;;9.09;76.29;99189.75;4868898;28;104001;-79
2021/03/26 00:38:17;;;;;;;7.20;5.80;;;;;;;9.18;76.12;99187.41;4876347;28;103703;-79
2021/03/26 00:40:44;;;;;;;8.23;7.07;;;;;;;9.21;75.91;99189.00;4879100;28;102896;-79
2021/03/26 00:43:12;;;;;;;11.63;9.23;;;;;;;8.93;77.61;99184.50;4857951;28;102613;-79
2021/03/26 00:45:42;;;;;;;9.87;7.40;;;;;;;9.05;76.23;99175.03;4841232;29;103046;-80
2021/03/26 00:48:10;;;;;;;9.23;6.57;;;;;;;9.09;76.39;99184.47;4857107;29;103018;-79
2021/03/26 00:50:40;;;;;;;11.93;9.50;;;;;;;9.00;76.65;99185.00;4854178;28;102639;-79
2021/03/26 00:53:10;;;;;;;10.57;9.23;;;;;;;8.62;78.29;99182.78;4853394;29;102720;-80
2021/03/26 00:55:38;;;;;;;10.43;8.30;;;;;;;8.62;78.69;99181.91;4863991;28;103130;-79
2021/03/26 00:58:07;;;;;;;9.57;7.77;;;;;;;8.69;77.76;99176.25;4853758;28;103964;-80
2021/03/26 01:00:36;;;;;;;11.23;8.80;;;;;;;8.47;77.97;99191.56;4869606;28;102857;-80
2021/03/26 01:03:08;;;;;;;10.97;8.60;;;;;;;7.99;80.01;99181.06;4882603;28;102746;-79
2021/03/26 01:05:43;;;;;;;10.77;8.47;;;;;;;7.96;80.04;99176.81;4871030;28;103913;-80
2021/03/26 01:08:10;;;;;;;9.53;7.40;;;;;;;8.15;79.47;99180.13;4869733;28;102589;-79
2021/03/26 01:10:51;;;;;;;10.37;8.13;;;;;;;8.24;78.77;99176.16;4870312;28;102567;-79
2021/03/26 01:13:19;;;;;;;10.03;8.27;;;;;;;8.21;78.65;99178.94;4855861;28;102679;-80
2021/03/26 01:15:48;;;;;;;9.23;6.97;;;;;;;8.23;78.48;99182.34;4854150;28;103331;-79
2021/03/26 01:18:24;;;;;;;9.47;7.77;;;;;;;8.19;78.25;99175.56;4835070;29;103867;-80
2021/03/26 01:20:53;;;;;;;10.80;8.80;;;;;;;7.88;79.38;99179.00;4852004;29;102551;-80
2021/03/26 01:23:20;;;;;;;6.77;6.10;;;;;;;7.94;79.74;99183.09;4863109;28;102766;-79
2021/03/26 01:25:47;;;;;;;8.53;7.63;;;;;;;8.03;78.40;99172.91;4850924;29;102670;-79
2021/03/26 01:28:38;;;;;;;7.00;5.57;;;;;;;8.11;77.59;99183.03;4852833;28;103841;-79
2021/03/26 01:31:39;;;;;;;9.87;8.83;;;;;;;7.73;79.91;99179.81;4841141;29;102546;-79
2021/03/26 01:34:08;;;;;;;11.93;9.03;;;;;;;7.36;81.63;99178.28;4834256;29;102754;-79
2021/03/26 01:36:41;;;;;;;9.33;7.80;;;;;;;7.40;82.29;99174.56;4849319;28;103317;-79
2021/03/26 01:39:11;;;;;;;10.57;8.33;;;;;;;7.59;80.69;99175.28;4871204;28;103843;-80
2021/03/26 01:41:46;;;;;;;8.83;7.63;;;;;;;7.68;79.59;99167.84;4856432;28;102599;-79
2021/03/26 01:44:17;;;;;;;12.80;9.33;;;;;;;7.27;81.63;99178.72;4878080;28;102655;-80
2021/03/26 01:46:46;;;;;;;10.33;7.73;;;;;;;7.41;81.25;99171.00;4860473;28;104836;-79
2021/03/26 01:49:17;;;;;;;10.50;9.17;;;;;;;7.22;81.53;99172.88;4854486;29;105115;-80
2021/03/26 01:51:49;;;;;;;10.00;8.03;;;;;;;7.39;80.74;99170.22;4837148;29;102641;-80
2021/03/26 01:54:19;;;;;;;11.07;8.97;;;;;;;7.57;79.77;99160.53;4860411;28;102688;-80
2021/03/26 01:56:52;;;;;;;13.57;10.10;;;;;;;7.24;81.87;99159.66;4874135;28;104244;-80
2021/03/26 01:59:35;;;;;;;11.20;10.00;;;;;;;7.13;82.21;99149.69;4843842;28;107197;-80
2021/03/26 02:02:07;;;;;;;12.40;9.00;;;;;;;7.18;82.66;99146.84;4879404;28;104104;-80
2021/03/26 02:04:54;;;;;;;12.93;7.77;;;;;;;7.37;81.19;99155.47;4863334;28;102720;-79
2021/03/26 02:07:41;;;;;;;10.30;6.87;;;;;;;7.54;80.17;99165.94;4856566;28;104428;-80
2021/03/26 02:10:16;;;;;;;8.13;6.30;;;;;;;7.56;79.61;99159.69;4880300;28;104143;-79
2021/03/26 02:12:45;;;;;;;12.93;10.10;;;;;;;7.05;82.21;99159.75;4859770;28;102753;-80
2021/03/26 02:15:20;;;;;;;12.20;10.27;;;;;;;6.69;84.75;99148.44;4874144;28;102580;-81
2021/03/26 02:17:49;;;;;;;12.60;9.63;;;;;;;6.53;85.62;99147.50;4854981;28;104167;-80
2021/03/26 02:20:32;;;;;;;11.60;9.60;;;;;;;6.58;85.64;99151.63;4863555;28;104919;-79
2021/03/26 02:23:07;;;;;;;13.00;8.83;;;;;;;6.81;84.65;99148.72;4856969;28;102626;-80
2021/03/26 02:25:37;;;;;;;15.77;9.87;;;;;;;6.76;84.64;99142.00;4874083;28;102819;-80
2021/03/26 02:28:05;;;;;;;10.10;8.67;;;;;;;6.68;85.34;99146.78;4872961;28;105075;-80
2021/03/26 02:30:56;;;;;;;7.70;6.57;;;;;;;7.03;83.55;99151.09;4856214;28;104770;-80
2021/03/26 02:33:26;;;;;;;9.50;7.43;;;;;;;7.26;82.23;99161.28;4869066;28;102762;-80
2021/03/26 02:36:35;;;;;;;9.97;8.87;;;;;;;7.09;83.15;99163.06;4852992;28;102810;-79
2021/03/26 02:39:14;;;;;;;12.30;8.90;;;;;;;6.45;86.78;99149.66;4850684;28;103697;-80
2021/03/26 02:41:47;;;;;;;10.13;7.77;;;;;;;6.79;85.49;99166.28;4841884;29;103882;-81
2021/03/26 02:44:36;;;;;;;7.87;6.87;;;;;;;7.08;83.49;99172.72;4851700;28;102685;-79
2021/03/26 02:47:18;;;;;;;9.53;8.53;;;;;;;7.05;83.18;99172.88;4873934;28;102591;-80
2021/03/26 02:49:56;;;;;;;12.60;8.63;;;;;;;6.75;84.63;99162.13;4853117;28;104245;-80
2021/03/26 02:52:31;;;;;;;13.33;9.80;;;;;;;6.60;86.15;99159.41;4869567;28;106013;-79
2021/03/26 02:55:08;;;;;;;12.30;10.30;;;;;;;6.69;85.79;99164.22;4855001;29;102726;-80
2021/03/26 02:57:41;;;;;;;13.83;10.23;;;;;;;6.26;87.75;99155.78;4853406;29;102650;-80
2021/03/26 03:00:16;;;;;;;15.43;11.87;;;;;;;6.34;88.11;99151.00;4834842;29;103281;-80
2021/03/26 03:02:46;;;;;;;16.40;12.37;;;;;;;6.24;88.46;99147.16;4852820;28;104822;-80
2021/03/26 03:05:17;;;;;;;16.37;11.50;;;;;;;6.10;89.59;99152.19;4854977;28;103828;-81
2021/03/26 03:07:52;;;;;;;13.53;11.93;;;;;;;6.14;89.29;99145.91;4853646;29;102661;-80
2021/03/26 03:10:31;;;;;;;15.27;11.57;;;;;;;6.31;88.62;99143.31;4850848;28;105816;-80
2021/03/26 03:13:08;;;;;;;17.20;12.33;;;;;;;6.11;89.75;99130.28;4848245;28;103214;-80
2021/03/26 03:15:41;;;;;;;13.07;11.07;;;;;;;6.37;88.60;99143.00;4836116;29;102929;-80
2021/03/26 03:18:15;;;;;;;14.20;9.77;;;;;;;6.60;86.36;99139.25;4845706;29;103000;-80
2021/03/26 03:20:48;;;;;;;9.40;7.97;;;;;;;6.73;85.17;99147.38;4854509;29;103308;-80
2021/03/26 03:23:22;;;;;;;12.10;8.63;;;;;;;6.84;84.00;99153.81;4852355;29;103257;-80
2021/03/26 03:26:17;;;;;;;13.77;10.63;;;;;;;6.48;85.48;99146.91;4854813;29;103216;-80
2021/03/26 03:28:51;;;;;;;13.90;10.50;;;;;;;6.48;86.08;99144.28;4855428;29;102659;-81
2021/03/26 03:32:01;;;;;;;15.10;11.40;;;;;;;6.37;87.19;99142.16;4854621;29;102826;-80
2021/03/26 03:34:32;;;;;;;20.00;12.00;;;;;;;6.28;87.82;99138.22;4851651;29;105224;-80
2021/03/26 03:37:12;;;;;;;17.80;12.13;;;;;;;6.17;88.92;99139.66;4855383;28;102686;-80
2021/03/26 03:39:47;;;;;;;17.33;12.03;;;;;;;6.02;89.16;99135.97;4842093;29;102899;-79
2021/03/26 03:42:20;;;;;;;14.60;11.00;;;;;;;6.15;88.98;99137.06;4826454;29;102970;-80
2021/03/26 03:44:58;;;;;;;15.47;12.60;;;;;;;5.88;90.07;99132.28;4821087;29;106448;-80
2021/03/26 03:47:31;;;;;;;11.03;9.90;;;;;;;6.17;89.37;99135.25;4853288;29;102559;-79
2021/03/26 03:50:18;;;;;;;8.90;8.00;;;;;;;6.43;87.24;99135.78;4802605;29;102670;-80
2021/03/26 03:52:54;;;;;;;14.70;9.73;;;;;;;6.49;86.30;99135.44;4849210;29;103971;-80
2021/03/26 03:55:30;;;;;;;13.23;11.17;;;;;;;6.35;86.66;99134.34;4836615;29;107249;-80
2021/03/26 03:58:08;;;;;;;16.60;12.80;;;;;;;5.91;89.43;99132.16;4837214;29;102654;-80
2021/03/26 04:00:39;;;;;;;15.77;11.37;;;;;;;5.84;90.53;99132.38;4837813;29;103001;-82
2021/03/26 04:03:16;;;;;;;14.37;10.93;;;;;;;5.86;90.66;99128.88;4852492;29;104623;-82
2021/03/26 04:05:54;;;;;;;13.10;9.80;;;;;;;6.16;88.87;99137.94;4837393;29;106594;-81
2021/03/26 04:08:30;;;;;;;12.10;10.43;;;;;;;6.33;86.77;99136.22;4855328;29;102621;-81
2021/03/26 04:11:08;;;;;;;16.43;11.20;;;;;;;6.14;87.43;99135.41;4838143;29;102938;-81
2021/03/26 04:13:44;;;;;;;15.13;11.03;;;;;;;6.03;87.85;99134.19;4830894;28;102696;-86
2021/03/26 04:16:18;;;;;;;15.40;12.27;;;;;;;6.02;89.30;99141.22;4847523;28;103813;-87
2021/03/26 04:18:51;;;;;;;9.83;8.20;;;;;;;6.33;87.24;99135.34;4841423;29;102934;-86
2021/03/26 04:21:28;;;;;;;8.93;8.00;;;;;;;6.48;85.76;99133.78;4874228;28;102594;-80
2021/03/26 04:24:08;;;;;;;17.07;11.77;;;;;;;6.37;86.70;99135.13;4855798;28;102570;-83
2021/03/26 04:27:00;;;;;;;12.07;10.80;;;;;;;6.25;88.49;99138.34;4847195;28;102589;-81
2021/03/26 04:30:00;;;;;;;13.27;11.13;;;;;;;6.14;88.70;99140.66;4838223;29;102600;-87
2021/03/26 04:32:39;;;;;;;12.93;8.77;;;;;;;6.25;88.99;99142.75;4827556;29;102484;-90
2021/03/26 04:35:10;;;;;;;14.27;11.10;;;;;;;6.40;87.46;99140.22;4863370;28;103138;-87
2021/03/26 04:37:47;;;;;;;16.47;12.30;;;;;;;5.99;89.72;99130.88;4859068;28;102663;-83
2021/03/26 04:40:26;;;;;;;17.90;12.60;;;;;;;5.93;90.75;99131.16;4862433;28;102667;-85
2021/03/26 04:43:02;;;;;;;13.67;12.07;;;;;;;5.82;90.92;99128.13;4874754;28;102775;-81
2021/03/26 04:45:41;;;;;;;17.03;12.43;;;;;;;5.68;91.65;99130.53;4858717;28;102824;-88
2021/03/26 04:48:34;;;;;;;16.17;12.90;;;;;;;5.84;90.96;99127.16;4871001;28;102653;-81
2021/03/26 04:51:26;;;;;;;14.87;12.13;;;;;;;6.01;89.88;99133.41;4873010;28;102688;-81
2021/03/26 04:54:16;;;;;;;16.43;12.53;;;;;;;5.85;90.25;99125.41;4873699;28;102505;-87
2021/03/26 04:56:56;;;;;;;16.10;12.20;;;;;;;5.83;91.44;99129.84;4867693;28;105895;-79
2021/03/26 04:59:32;;;;;;;16.87;12.13;;;;;;;5.83;91.19;99127.22;4872062;28;102808;-80
2021/03/26 05:02:13;;;;;;;16.97;12.40;;;;;;;5.84;91.02;99127.16;4851132;28;103170;-86
2021/03/26 05:04:45;;;;;;;16.83;12.57;;;;;;;5.75;90.96;99118.88;4869158;28;102566;-82
2021/03/26 05:07:18;;;;;;;16.93;13.00;;;;;;;5.68;91.98;99117.44;4866769;28;106809;-81
2021/03/26 05:09:53;;;;;;;17.93;12.37;;;;;;;5.85;91.88;99114.94;4857451;28;104441;-80
2021/03/26 05:13:00;;;;;;;15.40;12.93;;;;;;;5.92;90.90;99113.72;4860220;28;103030;-80
2021/03/26 05:15:41;;;;;;;18.57;13.57;;;;;;;5.69;92.22;99109.53;4860033;28;103414;-79
2021/03/26 05:18:22;;;;;;;20.70;13.37;;;;;;;5.72;91.53;99119.00;4861223;28;103379;-79
2021/03/26 05:20:58;;;;;;;16.93;13.50;;;;;;;5.71;91.58;99119.94;4854403;28;106553;-78
2021/03/26 05:23:48;;;;;;;14.57;12.37;;;;;;;5.81;90.73;99122.03;4872369;28;102900;-79
2021/03/26 05:26:35;;;;;;;23.57;14.37;;;;;;;5.57;91.71;99110.06;4871947;28;102856;-79
2021/03/26 05:29:21;;;;;;;20.37;14.10;;;;;;;5.59;91.83;99118.72;4856537;28;103929;-79
2021/03/26 05:31:59;;;;;;;16.83;12.27;;;;;;;5.76;91.29;99120.56;4855034;28;103114;-90
2021/03/26 05:35:01;;;;;;;16.50;11.90;;;;;;;5.84;90.52;99121.03;4822345;28;102901;-86
2021/03/26 05:37:42;;;;;;;16.00;12.77;;;;;;;5.92;90.11;99121.59;4842424;28;103492;-87
2021/03/26 05:41:22;;;;;;;18.83;14.87;;;;;;;5.66;91.63;99112.28;4828758;28;103022;-89
2021/03/26 05:44:44;;;;;;;15.30;12.50;;;;;;;5.78;91.56;99129.22;4871183;28;103717;-90
2021/03/26 05:47:30;;;;;;;18.90;12.97;;;;;;;5.86;90.50;99124.50;4870846;28;102693;-88
2021/03/26 05:50:32;;;;;;;18.97;13.03;;;;;;;5.93;90.47;99131.16;4860235;28;102682;-87
2021/03/26 05:53:18;;;;;;;15.43;11.47;;;;;;;6.06;89.81;99124.41;4858064;28;105296;-90
2021/03/26 05:56:23;;;;;;;15.63;12.90;;;;;;;6.03;90.02;99121.94;4877625;28;103947;-91
2021/03/26 05:59:04;;;;;;;19.10;12.97;;;;;;;5.98;90.48;99117.84;4861755;28;102501;-92
2021/03/26 06:01:51;;;;;;;16.63;14.10;;;;;;;6.17;89.54;99122.13;4859235;28;102053;-87
2021/03/26 06:05:10;;;;;;;14.87;11.77;;;;;;;6.43;89.32;99120.03;4873575;28;103299;-92
2021/03/26 06:08:24;;;;;;;21.47;14.10;;;;;;;6.69;87.32;99127.44;4880307;28;102160;-92
2021/03/26 06:11:30;;;;;;;17.57;14.23;;;;;;;6.64;89.27;99118.97;4860724;28;102125;-90
2021/03/26 06:14:28;;;;;;;20.57;14.77;;;;;;;6.71;89.44;99118.56;4862956;28;103023;-79
2021/03/26 06:17:49;;;;;;;17.43;12.10;;;;;;;7.01;87.23;99134.56;4862954;28;104590;-81
2021/03/26 06:21:09;;;;;;;16.10;13.33;;;;;;;7.20;85.43;99135.31;4838543;28;103246;-87
2021/03/26 06:24:22;;;;;;;16.67;12.43;;;;;;;7.51;84.90;99135.41;4853118;28;103057;-79
2021/03/26 06:27:13;;;;;;;18.53;15.07;;;;;;;7.48;85.08;99129.47;4847187;28;103408;-92
2021/03/26 06:29:51;;;;;;;17.93;12.33;;;;;;;7.64;84.71;99138.22;4849899;28;102472;-84
2021/03/26 06:32:53;;;;;;;13.03;10.53;;;;;;;7.68;83.92;99139.78;4868676;28;103354;-85
2021/03/26 06:35:51;;;;;;;13.23;11.50;;;;;;;7.87;83.00;99137.00;4861861;28;103343;-87
2021/03/26 06:38:47;;;;;;;18.40;14.67;;;;;;;7.59;83.32;99133.22;4869788;28;103073;-85
2021/03/26 06:41:22;;;;;;;15.17;11.87;;;;;;;7.82;83.23;99133.75;4866517;28;110403;-87
2021/03/26 06:44:37;;;;;;;19.93;13.90;;;;;;;7.99;83.14;99126.66;4886344;28;103896;-87
2021/03/26 06:47:13;;;;;;;16.20;14.03;;;;;;;8.05;81.74;99128.09;4885283;28;101676;-84
2021/03/26 06:49:51;;;;;;;18.70;15.10;;;;;;;7.81;81.96;99122.38;4886215;28;101614;-87
2021/03/26 06:52:41;;;;;;;19.43;14.60;;;;;;;8.19;81.86;99128.19;4867749;28;102408;-88
2021/03/26 06:55:26;;;;;;;19.13;15.10;;;;;;;8.34;81.35;99134.38;4886343;28;104255;-88
2021/03/26 06:58:41;;;;;;;17.70;13.30;;;;;;;8.65;79.89;99131.69;4885266;28;101617;-86
2021/03/26 07:01:41;;;;;;;18.77;16.10;;;;;;;8.52;79.66;99131.56;4896183;28;102070;-85
2021/03/26 07:04:57;;;;;;;18.83;15.83;;;;;;;8.59;78.74;99125.00;4893506;28;101953;-87
2021/03/26 07:08:02;;;;;;;16.93;13.30;;;;;;;8.91;78.18;99122.28;4890539;28;103423;-87
2021/03/26 07:10:41;;;;;;;25.03;16.40;;;;;;;8.91;77.78;99117.88;4884009;28;101819;-87
2021/03/26 07:13:46;;;;;;;16.13;14.43;;;;;;;9.18;77.16;99116.22;4899363;28;101630;-88
2021/03/26 07:16:21;;;;;;;19.50;14.97;;;;;;;9.32;76.63;99120.66;5296123;23;104102;31
2021/03/26 07:22:20;;;;;;;22.85;16.10;;;;;;;9.49;75.14;99120.47;5935541;23;104331;31
2021/03/26 08:38:15;;;;;;;14.43;11.03;;;;;;;15.53;55.64;99088.81;6262556;22;102837;-90
2021/03/26 08:40:50;;;;;;;13.40;11.77;;;;;;;16.09;54.29;99082.00;6244564;22;102486;-89
2021/03/26 08:43:19;;;;;;;12.27;10.97;;;;;;;16.44;54.00;99081.53;6245109;22;103656;-89
2021/03/26 08:45:55;;;;;;;14.60;11.53;;;;;;;16.75;52.43;99077.81;6245778;22;104438;-90
2021/03/26 08:48:33;;;;;;;13.80;11.57;;;;;;;16.13;54.17;99083.44;6247729;22;102953;-89
2021/03/26 08:51:32;;;;;;;13.27;10.80;;;;;;;16.35;53.65;99087.69;6246182;22;102640;-89
2021/03/26 08:54:15;;;;;;;14.70;11.63;;;;;;;16.44;52.78;99086.03;6238391;22;102516;-89
2021/03/26 08:56:51;;;;;;;12.90;10.90;;;;;;;16.61;53.56;99078.22;6262432;22;102873;-91
2021/03/26 08:59:32;;;;;;;15.53;11.67;;;;;;;15.67;52.83;99080.47;6245918;22;103000;-90
2021/03/26 09:02:25;;;;;;;14.00;11.20;;;;;;;16.01;53.56;99079.19;6245802;22;103255;-89
2021/03/26 09:05:15;;;;;;;15.23;11.53;;;;;;;15.91;52.19;99072.16;6244431;22;102764;-89
2021/03/26 09:07:59;;;;;;;17.47;12.00;;;;;;;16.22;53.87;99076.44;6239232;22;106085;-90
2021/03/26 09:11:04;;;;;;;9.50;8.00;;;;;;;17.49;51.36;99067.25;6218234;22;102928;-88
2021/03/26 09:13:55;;;;;;;11.77;8.43;;;;;;;17.66;50.15;99071.88;6244574;22;102833;-89
2021/03/26 09:16:25;;;;;;;10.33;8.97;;;;;;;17.05;50.18;99066.13;6242708;22;104525;-88
2021/03/26 09:19:02;;;;;;;12.43;10.90;;;;;;;16.00;51.20;99066.84;6243096;22;111159;-89
2021/03/26 09:21:50;;;;;;;12.10;10.20;;;;;;;16.98;52.24;99070.31;6242308;22;103207;-89
2021/03/26 09:24:31;;;;;;;11.80;9.00;;;;;;;17.55;49.43;99063.19;6212553;22;102810;-89
2021/03/26 09:27:11;;;;;;;10.97;8.70;;;;;;;18.02;49.74;99061.34;6244067;22;104244;-89
2021/03/26 09:29:54;;;;;;;11.30;9.07;;;;;;;17.95;49.35;99058.41;6217336;22;105430;-89
2021/03/26 09:32:27;;;;;;;12.85;9.40;;;;;;;17.40;48.03;99054.81;6244890;22;102482;-89
2021/03/26 09:35:04;;;;;;;8.93;8.02;;;;;;;17.88;47.46;99050.13;6243651;22;103287;-89
2021/03/26 09:37:39;;;;;;;9.63;8.57;;;;;;;18.03;46.59;99046.94;6261707;22;105188;-88
2021/03/26 09:40:14;;;;;;;9.98;8.73;;;;;;;17.91;46.33;99044.47;6269156;22;103775;-88
2021/03/26 09:42:47;;;;;;;10.48;8.68;;;;;;;18.59;46.82;99041.38;6268925;22;102745;-88
2021/03/26 09:45:24;;;;;;;13.68;9.30;;;;;;;18.53;47.33;99042.84;6267450;22;102755;-89
2021/03/26 09:48:15;;;;;;;10.27;8.27;;;;;;;18.76;46.73;99041.41;6242787;22;103789;-89
2021/03/26 09:51:42;;;;;;;11.30;9.10;;;;;;;18.85;44.60;99032.44;5106420;27;103093;-87
2021/03/26 09:54:17;;;;;;;11.65;9.30;;;;;;;17.19;46.80;99025.63;5084021;27;103050;-87
2021/03/26 09:56:50;;;;;;;13.02;9.77;;;;;;;16.90;47.40;99016.00;5071412;27;104000;-89
2021/03/26 09:59:34;;;;;;;11.15;9.18;;;;;;;17.23;47.36;99018.16;5064992;27;104138;-88
2021/03/26 10:02:15;;;;;;;11.50;10.15;;;;;;;15.90;49.39;99011.84;5062400;27;103058;-85
2021/03/26 10:04:51;;;;;;;12.95;8.90;;;;;;;17.67;48.48;99004.13;5045854;27;103105;-87
2021/03/26 10:07:30;;;;;;;9.05;6.85;;;;;;;18.53;47.26;99008.06;5067096;27;103273;-87
2021/03/26 10:10:43;;;;;;;10.43;8.73;;;;;;;18.46;45.97;98997.13;5070128;27;104303;-87
2021/03/26 10:13:04;;;;;;;9.05;7.55;;;;;;;18.86;45.74;99003.84;5052619;27;103444;-87
2021/03/26 10:15:35;;;;;;;12.70;9.15;;;;;;;18.23;45.71;98998.56;5071277;27;102953;-86
2021/03/26 10:18:10;;;;;;;12.18;7.95;;;;;;;18.91;45.34;98988.16;5079006;27;103906;-87
2021/03/26 10:20:45;;;;;;;11.77;9.52;;;;;;;17.65;46.05;98978.53;5063040;27;103103;-87
2021/03/26 10:23:26;;;;;;;12.93;10.07;;;;;;;18.45;46.39;98984.72;5070465;27;102959;-87
2021/03/26 10:26:03;;;;;;;11.82;8.95;;;;;;;18.58;46.14;98981.72;5083606;27;102742;-87
2021/03/26 10:28:53;;;;;;;11.20;9.48;;;;;;;19.18;44.91;98976.44;5079886;27;103807;-87
2021/03/26 10:31:30;;;;;;;12.68;8.48;;;;;;;19.31;44.79;98968.84;5083137;27;104504;-88
2021/03/26 10:34:01;;;;;;;9.45;8.30;;;;;;;19.57;45.07;98961.59;5052183;27;102551;-87
2021/03/26 10:36:38;;;;;;;12.48;9.82;;;;;;;18.98;44.53;98959.75;5075502;27;102999;-87
2021/03/26 10:39:10;;;;;;;12.30;9.85;;;;;;;18.82;45.22;98957.81;5080890;27;103856;-87
2021/03/26 10:41:58;;;;;;;12.63;9.93;;;;;;;16.91;46.82;98948.28;5093200;27;103035;-87
2021/03/26 10:44:54;;;;;;;11.45;9.05;;;;;;;17.69;47.76;98953.19;5091699;27;103012;-87
2021/03/26 10:47:27;;;;;;;10.05;8.90;;;;;;;17.32;47.26;98938.00;5082597;27;103019;-87
2021/03/26 10:50:00;;;;;;;9.85;8.85;;;;;;;17.67;46.03;98928.44;5081186;27;103798;-87
2021/03/26 10:52:34;;;;;;;11.57;8.60;;;;;;;17.99;46.65;98938.66;5072211;27;105103;-88
2021/03/26 10:55:08;;;;;;;8.68;7.22;;;;;;;18.22;46.52;98934.53;5062283;27;102615;-87
2021/03/26 10:57:38;;;;;;;9.48;8.35;;;;;;;17.99;46.36;98938.66;5079741;27;102917;-87
2021/03/26 11:00:21;;;;;;;12.68;10.10;;;;;;;17.63;46.04;98917.22;5075533;27;104294;-87
2021/03/26 11:02:58;;;;;;;11.57;8.88;;;;;;;17.93;45.92;98919.56;5065572;27;105197;-87
2021/03/26 11:05:32;;;;;;;11.18;8.27;;;;;;;18.07;47.08;98917.34;5067647;27;103121;-83
2021/03/26 11:08:18;;;;;;;11.23;9.80;;;;;;;18.12;45.84;98912.38;5048940;27;103170;-85
2021/03/26 11:10:54;;;;;;;7.40;6.40;;;;;;;17.57;45.51;98907.13;5062012;27;103857;-84
2021/03/26 11:13:30;;;;;;;10.13;6.50;;;;;;;18.73;43.47;98902.53;5066492;27;103961;-84
2021/03/26 11:16:05;;;;;;;8.50;6.85;;;;;;;17.88;44.29;98892.44;5048694;27;102582;-81
2021/03/26 11:18:40;;;;;;;9.43;6.72;;;;;;;19.04;42.24;98895.69;5040672;27;103303;-80
2021/03/26 11:21:12;;;;;;;7.75;6.95;;;;;;;19.06;42.44;98891.00;5059804;27;104353;-82
2021/03/26 11:23:41;;;;;;;7.57;5.68;;;;;;;18.93;43.05;98895.13;5060319;27;103668;-81
2021/03/26 11:26:24;;;;;;;10.07;8.70;;;;;;;18.79;43.97;98901.91;5061557;27;103357;-81
2021/03/26 11:29:03;;;;;;;9.75;8.02;;;;;;;19.22;43.13;98881.41;5060252;27;102958;-81
2021/03/26 11:31:34;;;;;;;10.63;8.25;;;;;;;19.90;42.01;98887.50;5037058;27;106942;-81
2021/03/26 11:34:12;;;;;;;9.85;8.20;;;;;;;19.64;42.31;98885.78;5052868;27;105142;-81
2021/03/26 11:36:56;;;;;;;8.65;6.75;;;;;;;19.88;41.49;98871.56;5068411;27;102913;-81
2021/03/26 11:39:31;;;;;;;10.60;7.25;;;;;;;20.15;40.58;98865.88;5068047;27;102963;-81
2021/03/26 11:42:32;;;;;;;12.40;7.50;;;;;;;19.22;39.25;98859.97;5063791;27;104364;-81
2021/03/26 11:45:04;;;;;;;6.22;5.60;;;;;;;19.84;40.68;98864.88;5060091;27;104428;-81
2021/03/26 11:47:36;;;;;;;6.22;5.40;;;;;;;19.95;40.08;98853.81;5062791;27;103009;-82
2021/03/26 11:50:21;;;;;;;8.73;5.25;;;;;;;20.34;39.01;98845.13;5065647;27;103155;-79
2021/03/26 11:53:20;;;;;;;7.60;5.63;;;;;;;20.63;37.92;98845.44;5049052;27;105598;-77
2021/03/26 11:56:00;;;;;;;7.70;4.95;;;;;;;20.49;38.19;98840.78;5053340;27;103794;-78
2021/03/26 11:58:35;;;;;;;5.80;4.45;;;;;;;20.62;38.61;98841.06;5067350;27;102918;-78
2021/03/26 12:01:08;;;;;;;6.43;3.78;;;;;;;20.29;36.65;98844.81;5034825;27;103637;-78
2021/03/26 12:03:44;;;;;;;6.38;4.60;;;;;;;20.03;36.75;98834.22;5048105;27;103874;-78
2021/03/26 12:06:23;;;;;;;4.72;4.10;;;;;;;20.45;35.73;98834.06;5063956;27;104803;-78
2021/03/26 12:09:07;;;;;;;4.60;4.07;;;;;;;21.32;35.14;98824.09;5057086;27;103189;-79
2021/03/26 12:11:42;;;;;;;5.80;4.20;;;;;;;21.13;35.35;98829.88;5049427;27;103023;-78
2021/03/26 12:14:17;;;;;;;6.65;4.00;;;;;;;21.40;34.58;98831.25;5061761;27;103371;-78
2021/03/26 12:17:02;;;;;;;5.47;3.58;;;;;;;21.22;35.34;98817.25;5046332;27;104614;-78
2021/03/26 12:19:31;;;;;;;4.55;4.00;;;;;;;21.17;35.89;98820.44;5050921;27;102642;-78
2021/03/26 12:22:04;;;;;;;7.45;4.57;;;;;;;20.94;35.81;98811.44;5065278;27;102948;-78
2021/03/26 12:24:39;;;;;;;6.72;5.43;;;;;;;20.78;36.62;98806.13;5066226;27;103796;-78
2021/03/26 12:27:17;;;;;;;8.18;5.72;;;;;;;20.71;36.78;98813.22;5066873;27;104858;-79
2021/03/26 12:29:51;;;;;;;9.13;5.35;;;;;;;21.19;37.16;98806.84;5063115;27;104126;-75
2021/03/26 12:32:33;;;;;;;6.28;5.05;;;;;;;21.02;37.25;98805.22;5059176;27;103216;-85
2021/03/26 12:35:25;;;;;;;6.10;5.47;;;;;;;21.15;36.99;98794.78;5041933;27;104391;-87
2021/03/26 12:38:12;;;;;;;8.30;5.43;;;;;;;20.67;36.83;98801.13;5060237;27;104836;-85
2021/03/26 12:41:03;;;;;;;6.88;4.85;;;;;;;20.42;37.09;98788.78;5053038;27;103134;-84
2021/03/26 12:43:39;;;;;;;6.10;4.82;;;;;;;20.89;37.73;98778.91;5060353;27;103211;-84
2021/03/26 12:46:18;;;;;;;7.82;5.40;;;;;;;20.03;38.41;98781.44;5049931;27;103472;-87
2021/03/26 12:48:50;;;;;;;6.82;5.18;;;;;;;20.84;37.16;98773.22;5057434;27;104811;-88
2021/03/26 12:51:28;;;;;;;8.70;4.93;;;;;;;21.20;37.34;98774.44;5064532;27;103100;-85
2021/03/26 12:54:01;;;;;;;10.88;6.13;;;;;;;21.06;37.17;98769.78;5052447;27;103200;-85
2021/03/26 12:56:35;;;;;;;6.70;6.07;;;;;;;20.34;38.62;98761.97;5056869;27;104410;-83
2021/03/26 12:59:12;;;;;;;8.05;5.72;;;;;;;19.96;39.46;98764.31;5054286;27;103840;-82
2021/03/26 13:01:46;;;;;;;7.70;6.10;;;;;;;19.60;39.69;98768.34;4984652;27;103002;-85
2021/03/26 13:04:45;;;;;;;7.68;6.43;;;;;;;19.62;39.04;98745.72;4979557;28;104581;-82
2021/03/26 13:07:26;;;;;;;6.25;5.65;;;;;;;20.26;39.27;98745.91;4977848;28;104405;-82
2021/03/26 13:10:20;;;;;;;7.95;6.35;;;;;;;19.56;39.44;98742.91;4968574;28;112583;-83
2021/03/26 13:12:52;;;;;;;5.78;5.18;;;;;;;19.45;41.41;98743.22;4987477;28;103432;-80
2021/03/26 13:15:25;;;;;;;7.50;5.70;;;;;;;19.56;40.86;98730.31;4979992;28;103088;-84
2021/03/26 13:18:06;;;;;;;7.50;5.90;;;;;;;19.13;40.03;98735.06;4994069;28;104776;-81
2021/03/26 13:20:56;;;;;;;8.73;5.72;;;;;;;18.40;39.94;98718.72;5000281;28;103310;-81
2021/03/26 13:23:32;;;;;;;4.88;3.85;;;;;;;19.04;40.52;98719.00;4983114;28;102812;-81
2021/03/26 13:26:04;;;;;;;6.13;4.05;;;;;;;19.75;39.36;98718.44;5004595;28;102980;-81
2021/03/26 13:28:39;;;;;;;5.20;3.50;;;;;;;19.63;38.07;98714.41;4985721;28;103311;-77
2021/03/26 13:31:10;;;;;;;5.47;3.10;;;;;;;19.85;37.85;98705.69;4985458;28;103629;-81
2021/03/26 13:33:47;;;;;;;5.40;3.53;;;;;;;20.28;37.12;98698.25;4987317;28;103120;-82
2021/03/26 13:36:30;;;;;;;8.07;3.63;;;;;;;20.58;37.10;98700.16;5003208;28;102689;-81
2021/03/26 13:39:20;;;;;;;4.95;3.55;;;;;;;20.69;36.85;98699.78;5002954;28;103802;-82